Time;durP1;ratioP1;P1;durP2;ratioP2;P2;SDS_P1;SDS_P2;PMS_P1;PMS_P2;Temp;Humidity;BMP_temperature;BMP_pressure;BME280_temperature;BME280_humidity;BME280_pressure;Samples;Min_cycle;Max_cycle;Signal;HPM_P1;HPM_P2
2021/12/23 00:01:32;;;;;;;0.40;0.40;;;-2.20;99.90;;;;;;5102627;28;20040;-83
2021/12/23 00:03:58;;;;;;;0.30;0.30;;;-2.20;99.90;;;;;;5052276;28;20049;-80
2021/12/23 00:06:25;;;;;;;0.30;0.30;;;-2.20;99.90;;;;;;5087410;28;20041;-80
2021/12/23 00:08:52;;;;;;;0.30;0.30;;;-2.20;99.90;;;;;;5056401;28;20048;-83
2021/12/23 00:11:19;;;;;;;0.30;0.30;;;-2.30;99.90;;;;;;5089676;28;20143;-80
2021/12/23 00:13:58;;;;;;;5.57;0.77;;;-2.20;99.90;;;;;;5056212;28;20041;-82
2021/12/23 00:16:41;;;;;;;0.30;0.30;;;-2.20;99.90;;;;;;5106394;28;20405;-82
2021/12/23 00:24:41;;;;;;;0.30;0.30;;;-2.00;99.90;;;;;;5074909;28;20045;-83
2021/12/23 00:27:08;;;;;;;0.30;0.30;;;-2.20;99.90;;;;;;5088801;28;20116;-80
2021/12/23 00:29:35;;;;;;;0.30;0.30;;;-2.20;99.90;;;;;;5088952;28;20040;-83
2021/12/23 00:32:05;;;;;;;0.30;0.30;;;-1.40;99.90;;;;;;5105290;28;20048;-82
2021/12/23 00:34:32;;;;;;;0.30;0.30;;;-2.20;99.90;;;;;;5056449;28;20399;-82
2021/12/23 00:37:00;;;;;;;0.30;0.30;;;-2.10;99.90;;;;;;5072069;28;20037;-82
2021/12/23 00:39:28;;;;;;;0.38;0.38;;;-2.20;99.90;;;;;;5088829;28;20037;-80
2021/12/23 00:42:04;;;;;;;0.30;0.30;;;-2.10;99.90;;;;;;5072187;28;20517;-81
2021/12/23 00:44:33;;;;;;;0.30;0.30;;;-1.00;99.90;;;;;;5073302;28;20437;-82
2021/12/23 00:46:59;;;;;;;0.30;0.30;;;-1.90;99.90;;;;;;5088899;28;20036;-83
2021/12/23 00:49:26;;;;;;;0.30;0.30;;;-1.80;99.90;;;;;;5055823;28;20407;-83
2021/12/23 00:51:54;;;;;;;0.40;0.40;;;-2.10;99.90;;;;;;5055798;28;20473;-81
2021/12/23 00:54:20;;;;;;;0.38;0.38;;;-1.50;99.90;;;;;;5055921;28;20088;-82
2021/12/23 00:56:49;;;;;;;0.30;0.30;;;-2.00;99.90;;;;;;5088210;28;20072;-82
2021/12/23 00:59:16;;;;;;;0.30;0.30;;;-2.00;99.90;;;;;;5105309;28;20405;-80
2021/12/23 01:01:43;;;;;;;0.30;0.30;;;-2.00;99.90;;;;;;5105152;28;20045;-80
2021/12/23 01:04:10;;;;;;;0.30;0.30;;;-1.60;99.90;;;;;;5038991;28;20048;-80
2021/12/23 01:06:36;;;;;;;0.30;0.30;;;-1.90;99.90;;;;;;5071647;28;20100;-83
2021/12/23 01:09:03;;;;;;;0.30;0.30;;;-2.00;99.90;;;;;;5055024;28;20107;-82
2021/12/23 01:11:30;;;;;;;0.30;0.30;;;-1.90;99.90;;;;;;5055399;28;20033;-83
2021/12/23 01:14:03;;;;;;;0.30;0.30;;;-1.90;99.90;;;;;;5104751;28;20041;-83
2021/12/23 01:16:49;;;;;;;0.43;0.43;;;-1.90;99.90;;;;;;5105261;28;20040;-81
2021/12/23 01:19:17;;;;;;;0.40;0.40;;;-1.00;99.90;;;;;;5104690;28;20052;-83
2021/12/23 01:21:44;;;;;;;0.40;0.40;;;-1.80;99.90;;;;;;5104589;28;20063;-80
2021/12/23 01:24:11;;;;;;;0.30;0.30;;;-1.80;99.90;;;;;;5071135;28;20083;-83
2021/12/23 01:26:39;;;;;;;0.30;0.30;;;-1.80;99.90;;;;;;5055449;28;20077;-83
2021/12/23 01:29:07;;;;;;;0.50;0.50;;;-0.80;99.90;;;;;;5071198;28;20041;-80
2021/12/23 01:31:36;;;;;;;0.40;0.40;;;-1.30;99.90;;;;;;5071602;28;20040;-80
2021/12/23 01:34:04;;;;;;;1.02;0.85;;;-1.80;99.90;;;;;;5104637;28;20041;-80
2021/12/23 01:36:31;;;;;;;0.30;0.30;;;-1.80;99.90;;;;;;5087960;28;20052;-83
2021/12/23 01:38:58;;;;;;;0.30;0.30;;;-1.70;99.90;;;;;;5054646;28;20037;-83
2021/12/23 01:41:26;;;;;;;0.30;0.30;;;-1.70;99.90;;;;;;5071092;28;20057;-83
2021/12/23 01:43:53;;;;;;;0.30;0.30;;;-1.60;99.90;;;;;;5087288;28;20409;-82
2021/12/23 01:46:22;;;;;;;0.35;0.35;;;-1.70;99.90;;;;;;5087971;28;20044;-80
2021/12/23 01:48:49;;;;;;;0.30;0.30;;;-1.70;99.90;;;;;;5071399;28;20118;-80
2021/12/23 01:51:16;;;;;;;0.40;0.40;;;-1.60;99.90;;;;;;5087296;28;20072;-80
2021/12/23 01:53:42;;;;;;;0.30;0.30;;;-1.60;99.90;;;;;;5104509;28;20076;-83
2021/12/23 01:56:09;;;;;;;0.30;0.30;;;-1.60;99.90;;;;;;5103912;28;20072;-83
2021/12/23 01:58:38;;;;;;;0.40;0.40;;;-1.60;99.90;;;;;;5103786;28;20114;-80
2021/12/23 02:01:06;;;;;;;0.30;0.30;;;-1.60;99.90;;;;;;5103705;28;20413;-80
2021/12/23 02:03:33;;;;;;;0.22;0.22;;;-1.50;99.90;;;;;;5104190;28;20047;-80
2021/12/23 02:06:00;;;;;;;0.30;0.30;;;-0.60;99.90;;;;;;5103641;28;20057;-80
2021/12/23 02:08:27;;;;;;;0.30;0.30;;;-0.40;99.90;;;;;;5086723;28;20057;-80
2021/12/23 02:10:55;;;;;;;0.20;0.20;;;-1.50;99.90;;;;;;5070862;28;20040;-80
2021/12/23 02:13:23;;;;;;;0.80;0.80;;;-1.60;99.90;;;;;;5103644;28;20033;-83
2021/12/23 02:15:50;;;;;;;0.40;0.40;;;-1.20;99.90;;;;;;5054153;28;20041;-83
2021/12/23 02:18:17;;;;;;;0.22;0.22;;;-1.60;99.90;;;;;;5086620;28;20056;-81
2021/12/23 02:20:43;;;;;;;0.20;0.20;;;-1.50;99.90;;;;;;5086773;28;20128;-83
2021/12/23 02:23:10;;;;;;;0.30;0.30;;;-1.40;99.90;;;;;;5053412;28;20127;-81
2021/12/23 02:25:37;;;;;;;0.30;0.30;;;-1.50;99.90;;;;;;5103577;28;20042;-83
2021/12/23 02:28:07;;;;;;;0.38;0.38;;;-1.50;99.90;;;;;;5086603;28;20383;-80
2021/12/23 02:30:39;;;;;;;0.30;0.30;;;-1.50;99.90;;;;;;5054550;28;20099;-80
2021/12/23 02:33:07;;;;;;;0.30;0.30;;;-1.20;99.90;;;;;;5086509;28;20079;-83
2021/12/23 02:35:35;;;;;;;0.30;0.30;;;-1.50;99.90;;;;;;5086887;28;20133;-83
2021/12/23 02:38:03;;;;;;;0.30;0.30;;;-1.50;99.90;;;;;;5069873;28;20114;-80
2021/12/23 02:40:36;;;;;;;0.40;0.40;;;-1.40;99.90;;;;;;5070532;28;20044;-80
2021/12/23 02:43:27;;;;;;;0.20;0.20;;;-1.40;99.90;;;;;;5086494;28;20512;-80
2021/12/23 02:45:57;;;;;;;0.22;0.22;;;-1.40;99.90;;;;;;5062850;28;20465;-80
2021/12/23 02:48:29;;;;;;;0.30;0.30;;;-1.40;99.90;;;;;;5103056;28;20536;-83
2021/12/23 02:50:56;;;;;;;0.30;0.30;;;-0.20;99.90;;;;;;5086423;28;20041;-80
2021/12/23 02:53:24;;;;;;;0.30;0.30;;;-1.30;99.90;;;;;;5102782;28;20044;-80
2021/12/23 02:55:54;;;;;;;0.40;0.40;;;-1.30;99.90;;;;;;5069941;28;20694;-83
2021/12/23 02:58:21;;;;;;;0.68;0.68;;;-1.30;99.90;;;;;;5086232;28;20072;-81
2021/12/23 03:00:51;;;;;;;0.28;0.28;;;-1.30;99.90;;;;;;5070058;28;20033;-80
2021/12/23 03:03:18;;;;;;;0.20;0.20;;;-1.30;99.90;;;;;;5053886;28;20532;-83
2021/12/23 03:05:50;;;;;;;0.40;0.40;;;0.20;99.90;;;;;;5086359;28;20079;-83
2021/12/23 03:08:34;;;;;;;0.20;0.20;;;-1.00;99.90;;;;;;5085771;28;20045;-80
2021/12/23 03:11:02;;;;;;;0.30;0.30;;;-1.20;99.90;;;;;;5086125;28;20047;-80
2021/12/23 03:13:29;;;;;;;0.40;0.40;;;-1.10;99.90;;;;;;5086420;28;20033;-83
2021/12/23 03:15:56;;;;;;;0.55;0.50;;;-0.70;99.90;;;;;;5085702;28;20059;-83
2021/12/23 03:18:23;;;;;;;0.30;0.30;;;-0.50;99.90;;;;;;5083059;28;20105;-83
2021/12/23 03:20:50;;;;;;;0.30;0.30;;;-1.00;99.90;;;;;;5063137;28;20037;-83
2021/12/23 03:23:16;;;;;;;0.22;0.22;;;-1.10;99.90;;;;;;5088229;28;20063;-82
2021/12/23 03:25:43;;;;;;;0.30;0.30;;;-1.20;99.90;;;;;;5067008;28;20044;-83
2021/12/23 03:28:10;;;;;;;0.30;0.30;;;-1.10;99.90;;;;;;5085989;28;20447;-83
2021/12/23 03:30:38;;;;;;;0.30;0.30;;;-0.30;99.90;;;;;;5086216;28;20505;-83
2021/12/23 03:33:06;;;;;;;0.20;0.20;;;-1.20;99.90;;;;;;5086532;28;20033;-81
2021/12/23 03:35:33;;;;;;;0.30;0.30;;;-1.10;99.90;;;;;;5085831;28;20036;-81
2021/12/23 03:38:00;;;;;;;0.30;0.30;;;-1.10;99.90;;;;;;5086248;28;20044;-81
2021/12/23 03:40:27;;;;;;;0.30;0.30;;;-0.30;99.90;;;;;;5053687;28;20702;-83
2021/12/23 03:42:54;;;;;;;0.30;0.30;;;-1.20;99.90;;;;;;5073450;28;20131;-81
2021/12/23 03:45:21;;;;;;;0.30;0.30;;;-0.90;99.90;;;;;;5056658;28;20478;-84
2021/12/23 03:47:49;;;;;;;0.30;0.30;;;-1.20;99.90;;;;;;5090251;28;20036;-84
2021/12/23 03:50:19;;;;;;;0.30;0.30;;;-1.20;99.90;;;;;;5073507;28;20850;-83
2021/12/23 03:52:47;;;;;;;0.30;0.30;;;-0.40;99.90;;;;;;5089734;28;20442;-83
2021/12/23 03:55:15;;;;;;;0.30;0.30;;;-1.10;99.90;;;;;;5073256;28;20063;-83
2021/12/23 03:57:42;;;;;;;0.30;0.30;;;-1.20;99.90;;;;;;5090145;28;20516;-81
2021/12/23 04:00:14;;;;;;;1.10;0.85;;;-1.00;99.90;;;;;;5056668;28;20045;-81
2021/12/23 04:02:41;;;;;;;0.22;0.22;;;-1.20;99.90;;;;;;5089937;28;20442;-81
2021/12/23 04:05:08;;;;;;;0.30;0.30;;;-1.20;99.90;;;;;;5073166;28;20489;-83
2021/12/23 04:07:36;;;;;;;0.30;0.30;;;-1.20;99.90;;;;;;5089343;28;20056;-79
2021/12/23 04:10:05;;;;;;;0.40;0.40;;;-1.10;99.90;;;;;;5072728;28;20049;-81
2021/12/23 04:12:32;;;;;;;0.30;0.30;;;-1.10;99.90;;;;;;5089420;28;20041;-81
2021/12/23 04:14:59;;;;;;;0.30;0.30;;;-1.20;99.90;;;;;;5089650;28;20044;-82
2021/12/23 04:17:25;;;;;;;0.20;0.20;;;-1.10;99.90;;;;;;5072898;28;20037;-82
2021/12/23 04:19:59;;;;;;;0.40;0.40;;;-1.10;99.90;;;;;;5072707;28;20493;-82
2021/12/23 04:22:25;;;;;;;0.30;0.30;;;-0.10;99.90;;;;;;5057204;28;20493;-82
2021/12/23 04:24:52;;;;;;;0.30;0.30;;;-1.10;99.90;;;;;;5072767;28;20052;-83
2021/12/23 04:27:19;;;;;;;0.30;0.30;;;-1.10;99.90;;;;;;5072234;28;20048;-80
2021/12/23 04:29:46;;;;;;;0.30;0.30;;;-0.10;99.90;;;;;;5072863;28;20091;-82
2021/12/23 04:32:13;;;;;;;0.30;0.30;;;-1.10;99.90;;;;;;5072453;28;20056;-80
2021/12/23 04:34:39;;;;;;;0.30;0.30;;;-0.20;99.90;;;;;;5072695;28;20037;-80
2021/12/23 04:37:06;;;;;;;0.30;0.30;;;-1.10;99.90;;;;;;5056186;28;20033;-80
2021/12/23 04:39:33;;;;;;;0.30;0.30;;;-1.10;99.90;;;;;;5072408;28;20063;-80
2021/12/23 04:41:59;;;;;;;0.30;0.30;;;-1.00;99.90;;;;;;5072527;28;20124;-80
2021/12/23 04:44:26;;;;;;;0.30;0.30;;;-1.10;99.90;;;;;;5072610;28;20122;-80
2021/12/23 04:46:53;;;;;;;0.30;0.30;;;-1.10;99.90;;;;;;5056137;28;20124;-82
2021/12/23 04:49:22;;;;;;;0.30;0.30;;;-1.00;99.90;;;;;;5055836;28;20076;-82
2021/12/23 04:51:49;;;;;;;0.30;0.30;;;-1.00;99.90;;;;;;5072331;28;20044;-82
2021/12/23 04:54:16;;;;;;;0.30;0.30;;;-0.90;99.90;;;;;;5055625;28;20069;-82
2021/12/23 04:56:43;;;;;;;0.13;0.13;;;-1.00;99.90;;;;;;5072279;28;20095;-80
2021/12/23 04:59:09;;;;;;;0.30;0.30;;;-1.00;99.90;;;;;;5072602;28;20048;-80
2021/12/23 05:01:36;;;;;;;0.40;0.40;;;-1.00;99.90;;;;;;5088478;28;20072;-79
2021/12/23 05:04:04;;;;;;;0.30;0.30;;;-1.00;99.90;;;;;;5056111;28;20040;-83
2021/12/23 05:06:31;;;;;;;0.30;0.30;;;-1.00;99.90;;;;;;5055126;28;20782;-80
2021/12/23 05:08:58;;;;;;;0.30;0.30;;;0.20;99.90;;;;;;5071406;28;20056;-82
2021/12/23 05:11:25;;;;;;;0.25;0.25;;;-1.00;99.90;;;;;;5071707;28;20052;-80
2021/12/23 05:13:51;;;;;;;0.20;0.20;;;-1.00;99.90;;;;;;5071705;28;20178;-80
2021/12/23 05:16:18;;;;;;;0.40;0.40;;;-0.50;99.90;;;;;;5055135;28;20126;-80
2021/12/23 05:18:46;;;;;;;0.20;0.20;;;-0.80;99.90;;;;;;5055756;28;20052;-80
2021/12/23 05:21:12;;;;;;;0.30;0.30;;;-0.90;99.90;;;;;;5088206;28;20183;-81
2021/12/23 05:23:39;;;;;;;0.20;0.20;;;-1.00;99.90;;;;;;5087830;28;20760;-82
2021/12/23 05:26:07;;;;;;;0.25;0.25;;;-1.00;99.90;;;;;;5071720;28;20052;-80
2021/12/23 05:28:35;;;;;;;0.20;0.20;;;-1.00;99.90;;;;;;5088018;28;20044;-80
2021/12/23 05:31:03;;;;;;;0.30;0.30;;;-1.00;99.90;;;;;;5055325;28;20485;-80
2021/12/23 05:33:30;;;;;;;0.30;0.30;;;-1.00;99.90;;;;;;5055201;28;20055;-80
2021/12/23 05:35:56;;;;;;;0.30;0.30;;;-0.90;99.90;;;;;;5055359;28;20483;-83
2021/12/23 05:38:24;;;;;;;0.20;0.20;;;0.10;99.90;;;;;;5071092;28;20086;-82
2021/12/23 05:40:51;;;;;;;0.30;0.30;;;-1.00;99.90;;;;;;5088070;28;20575;-80
2021/12/23 05:43:18;;;;;;;0.30;0.30;;;-0.90;99.90;;;;;;5070904;28;20041;-80
2021/12/23 05:45:45;;;;;;;0.30;0.30;;;-0.90;99.90;;;;;;5087519;28;20084;-81
2021/12/23 05:48:12;;;;;;;0.30;0.30;;;-0.90;99.90;;;;;;5087517;28;20045;-82
2021/12/23 05:50:38;;;;;;;0.30;0.30;;;-0.90;99.90;;;;;;5087709;28;20037;-81
2021/12/23 05:53:05;;;;;;;0.30;0.30;;;-0.50;99.90;;;;;;5054434;28;20037;-83
2021/12/23 05:55:32;;;;;;;0.28;0.28;;;-0.90;99.90;;;;;;5087036;28;20037;-80
2021/12/23 05:57:59;;;;;;;0.30;0.30;;;-0.90;99.90;;;;;;5070959;28;20048;-83
2021/12/23 06:00:29;;;;;;;0.25;0.25;;;-0.80;99.90;;;;;;5070512;28;20040;-80
2021/12/23 06:02:58;;;;;;;0.20;0.20;;;0.00;99.90;;;;;;5086994;28;20045;-83
2021/12/23 06:05:26;;;;;;;0.30;0.30;;;-0.80;99.90;;;;;;5086819;28;20504;-80
2021/12/23 06:07:53;;;;;;;0.30;0.30;;;-0.80;99.90;;;;;;5053808;28;20053;-80
2021/12/23 06:10:20;;;;;;;0.32;0.32;;;-0.80;99.90;;;;;;5086998;28;20037;-83
2021/12/23 06:12:47;;;;;;;0.30;0.30;;;-0.80;99.90;;;;;;5090408;28;20033;-83
2021/12/23 06:15:15;;;;;;;0.20;0.20;;;0.30;99.90;;;;;;5090809;28;20503;-82
2021/12/23 06:17:41;;;;;;;0.20;0.20;;;-0.80;99.90;;;;;;5073859;28;20493;-81
2021/12/23 06:20:09;;;;;;;0.30;0.30;;;-0.80;99.90;;;;;;5077052;28;20040;-81
2021/12/23 06:22:37;;;;;;;0.30;0.30;;;-0.80;99.90;;;;;;5078483;28;20050;-82
2021/12/23 06:25:06;;;;;;;0.30;0.30;;;-0.80;99.90;;;;;;5054615;28;20041;-82
2021/12/23 06:27:33;;;;;;;0.30;0.30;;;-0.80;99.90;;;;;;5070417;28;20048;-81
2021/12/23 06:30:01;;;;;;;0.40;0.40;;;-0.80;99.90;;;;;;5070360;28;20037;-82
2021/12/23 06:32:27;;;;;;;0.20;0.20;;;-0.20;99.90;;;;;;5087180;28;20079;-81
2021/12/23 06:34:54;;;;;;;0.30;0.30;;;-0.80;99.90;;;;;;5054234;28;20076;-81
2021/12/23 06:37:21;;;;;;;0.20;0.20;;;-0.80;99.90;;;;;;5098144;28;20044;-82
2021/12/23 06:39:48;;;;;;;0.20;0.20;;;-0.30;99.90;;;;;;5061813;28;20041;-82
2021/12/23 06:42:14;;;;;;;0.30;0.30;;;0.20;99.90;;;;;;5062104;28;20045;-82
2021/12/23 06:44:41;;;;;;;0.17;0.17;;;-0.70;99.90;;;;;;5053679;28;20095;-82
2021/12/23 06:47:08;;;;;;;0.20;0.20;;;-0.70;99.90;;;;;;5059389;28;20068;-82
2021/12/23 06:49:35;;;;;;;0.30;0.30;;;-0.70;99.90;;;;;;5073543;28;20033;-81
2021/12/23 06:52:01;;;;;;;0.30;0.30;;;-0.70;99.90;;;;;;5073924;28;20378;-82
2021/12/23 06:54:28;;;;;;;0.77;0.77;;;-0.70;99.90;;;;;;5082451;28;20044;-82
2021/12/23 06:56:55;;;;;;;0.30;0.30;;;-0.70;99.90;;;;;;5062506;28;20051;-84
2021/12/23 06:59:22;;;;;;;0.20;0.20;;;-0.70;99.90;;;;;;5061331;28;20537;-84
2021/12/23 07:01:49;;;;;;;0.30;0.30;;;-0.10;99.90;;;;;;5088668;28;20041;-83
2021/12/23 07:04:22;;;;;;;0.30;0.30;;;-0.70;99.90;;;;;;5069325;28;20461;-83
2021/12/23 07:09:36;;;;;;;0.30;0.30;;;-0.60;99.90;;;;;;5071414;28;20049;-81
2021/12/23 07:12:08;;;;;;;0.25;0.25;;;-0.70;99.90;;;;;;5086030;28;20037;-83
2021/12/23 07:14:35;;;;;;;0.20;0.20;;;-0.60;99.90;;;;;;5085545;28;20041;-80
2021/12/23 07:17:03;;;;;;;0.20;0.20;;;-0.60;99.90;;;;;;5082985;28;20511;-81
2021/12/23 07:19:30;;;;;;;0.20;0.20;;;-0.60;99.90;;;;;;5089761;28;20048;-81
2021/12/23 07:21:57;;;;;;;0.20;0.20;;;-0.60;99.90;;;;;;5074308;28;20405;-79
2021/12/23 07:24:23;;;;;;;0.20;0.20;;;-0.50;99.90;;;;;;5075867;28;20044;-80
2021/12/23 07:26:50;;;;;;;0.20;0.20;;;-0.60;99.90;;;;;;5072793;28;20036;-80
2021/12/23 07:29:17;;;;;;;0.20;0.20;;;-0.50;99.90;;;;;;5072596;28;20550;-81
2021/12/23 07:31:45;;;;;;;0.30;0.30;;;-0.50;99.90;;;;;;5062400;28;20545;-81
2021/12/23 07:34:11;;;;;;;0.30;0.30;;;-0.50;99.90;;;;;;5086325;28;20486;-81
2021/12/23 07:36:39;;;;;;;0.30;0.30;;;-0.50;99.90;;;;;;5086645;28;20040;-80
2021/12/23 07:39:07;;;;;;;0.28;0.28;;;-0.50;99.90;;;;;;5072705;28;20037;-79
2021/12/23 07:41:34;;;;;;;0.20;0.20;;;-0.40;99.90;;;;;;5099944;28;20124;-81
2021/12/23 07:44:06;;;;;;;0.30;0.30;;;-0.50;99.90;;;;;;5097436;28;20124;-80
2021/12/23 07:46:36;;;;;;;0.30;0.30;;;-0.40;99.90;;;;;;5078035;28;20467;-82
2021/12/23 07:49:04;;;;;;;0.20;0.20;;;0.50;99.90;;;;;;5080574;28;20029;-80
2021/12/23 07:51:30;;;;;;;0.20;0.20;;;-0.40;99.90;;;;;;5055936;28;20041;-80
2021/12/23 07:53:57;;;;;;;0.20;0.20;;;0.00;99.90;;;;;;5057565;28;20041;-82
2021/12/23 07:56:24;;;;;;;0.30;0.30;;;-0.50;99.90;;;;;;5083389;28;20243;-82
2021/12/23 07:58:52;;;;;;;0.30;0.30;;;0.10;99.90;;;;;;5083161;28;20075;-87
2021/12/23 08:01:19;;;;;;;0.80;0.80;;;-0.50;99.90;;;;;;5066875;28;20059;-87
2021/12/23 08:03:46;;;;;;;0.30;0.30;;;-0.50;99.90;;;;;;5099159;28;20044;-80
2021/12/23 08:06:14;;;;;;;0.30;0.30;;;-0.50;99.90;;;;;;5068364;28;20055;-80
2021/12/23 08:08:41;;;;;;;0.22;0.22;;;0.20;99.90;;;;;;5077490;28;20052;-81
2021/12/23 08:11:08;;;;;;;0.30;0.30;;;-0.50;99.90;;;;;;5105636;28;20041;-86
2021/12/23 08:13:36;;;;;;;0.30;0.30;;;-0.40;99.90;;;;;;5072604;28;20403;-84
2021/12/23 08:16:05;;;;;;;0.20;0.20;;;0.60;99.90;;;;;;5072184;28;20037;-79
2021/12/23 08:18:32;;;;;;;0.32;0.32;;;-0.50;99.90;;;;;;5072913;28;20048;-82
2021/12/23 08:21:00;;;;;;;0.20;0.20;;;-0.50;99.90;;;;;;5082762;28;20079;-85
2021/12/23 08:23:27;;;;;;;0.30;0.30;;;-0.40;99.90;;;;;;5069523;28;20043;-88
2021/12/23 08:25:55;;;;;;;0.20;0.20;;;-0.40;99.90;;;;;;5053057;28;20037;-80
2021/12/23 08:28:22;;;;;;;0.20;0.20;;;-0.40;99.90;;;;;;5074693;28;20131;-84
2021/12/23 08:30:49;;;;;;;0.30;0.30;;;-0.40;99.90;;;;;;5108729;28;20046;-78
2021/12/23 08:33:15;;;;;;;0.30;0.30;;;0.30;99.90;;;;;;5089470;28;20112;-85
2021/12/23 08:35:42;;;;;;;0.20;0.20;;;-0.40;99.90;;;;;;5095693;28;20032;-79
2021/12/23 08:38:09;;;;;;;0.50;0.50;;;-0.30;99.90;;;;;;5060871;28;20033;-77
2021/12/23 08:40:36;;;;;;;0.30;0.30;;;-0.30;99.90;;;;;;5089151;28;20033;-85
2021/12/23 08:43:03;;;;;;;0.30;0.30;;;-0.30;99.90;;;;;;5072224;28;20033;-88
2021/12/23 08:45:31;;;;;;;0.20;0.20;;;0.60;99.90;;;;;;5089378;28;20101;-87
2021/12/23 08:47:59;;;;;;;0.30;0.30;;;-0.30;99.90;;;;;;5056268;28;20033;-79
2021/12/23 08:50:28;;;;;;;0.20;0.20;;;-0.30;99.90;;;;;;5072109;28;20040;-86
2021/12/23 08:52:55;;;;;;;0.30;0.30;;;-0.30;99.90;;;;;;5088806;28;20912;-84
2021/12/23 08:55:24;;;;;;;0.20;0.20;;;-0.30;99.90;;;;;;5088879;28;20036;-87
2021/12/23 08:57:51;;;;;;;0.20;0.20;;;-0.30;99.90;;;;;;5088726;28;20036;-80
2021/12/23 09:00:19;;;;;;;0.30;0.30;;;-0.30;99.90;;;;;;5055366;28;20504;-85
2021/12/23 09:02:48;;;;;;;0.20;0.20;;;-0.30;99.90;;;;;;5071921;28;20409;-83
2021/12/23 09:05:17;;;;;;;0.20;0.20;;;-0.30;99.90;;;;;;5088516;28;20136;-84
2021/12/23 09:07:44;;;;;;;0.20;0.20;;;-0.30;99.90;;;;;;5087977;28;20064;-81
2021/12/23 09:10:11;;;;;;;0.40;0.40;;;-0.20;99.90;;;;;;5054952;28;20037;-83
2021/12/23 09:12:38;;;;;;;0.30;0.30;;;-0.30;99.90;;;;;;5055801;28;20134;-86
2021/12/23 09:15:05;;;;;;;0.22;0.22;;;0.50;99.90;;;;;;5055117;28;20144;-78
2021/12/23 09:17:33;;;;;;;0.20;0.20;;;-0.30;99.90;;;;;;5072198;28;20033;-79
2021/12/23 09:19:59;;;;;;;0.30;0.30;;;0.80;99.90;;;;;;5071378;28;20041;-85
2021/12/23 09:22:26;;;;;;;0.25;0.25;;;-0.30;99.90;;;;;;5072180;28;20094;-79
2021/12/23 09:25:02;;;;;;;0.30;0.30;;;-0.30;99.90;;;;;;5087962;28;20452;-81
2021/12/23 09:27:42;;;;;;;0.20;0.20;;;-0.20;99.90;;;;;;5072780;28;20520;-80
2021/12/23 09:32:56;;;;;;;0.20;0.20;;;-0.30;99.90;;;;;;5087803;28;20053;-82
2021/12/23 09:35:25;;;;;;;0.20;0.20;;;-0.20;99.90;;;;;;5071637;28;20043;-77
2021/12/23 09:37:52;;;;;;;0.30;0.30;;;-0.20;99.90;;;;;;5087123;28;20087;-81
2021/12/23 09:40:20;;;;;;;0.20;0.20;;;-0.30;99.90;;;;;;5054463;28;20037;-78
2021/12/23 09:42:47;;;;;;;0.30;0.30;;;-0.20;99.90;;;;;;5087658;28;20049;-82
2021/12/23 09:45:17;;;;;;;0.20;0.20;;;-0.30;99.90;;;;;;5087580;28;20037;-83
2021/12/23 09:47:48;;;;;;;0.30;0.30;;;0.00;99.90;;;;;;5055611;28;20072;-84
2021/12/23 09:50:21;;;;;;;0.28;0.28;;;0.20;99.90;;;;;;5087546;28;20152;-81
2021/12/23 09:52:51;;;;;;;0.20;0.20;;;-0.20;99.90;;;;;;5106442;28;20094;-80
2021/12/23 09:55:24;;;;;;;0.30;0.30;;;-0.10;99.90;;;;;;5090778;28;20043;-80
2021/12/23 09:57:53;;;;;;;0.43;0.43;;;-0.20;99.90;;;;;;5107601;28;20083;-80
2021/12/23 10:00:23;;;;;;;0.22;0.22;;;-0.10;99.90;;;;;;5107691;28;20497;-80
2021/12/23 10:02:51;;;;;;;0.30;0.30;;;-0.20;99.90;;;;;;5090829;28;20047;-80
2021/12/23 10:05:23;;;;;;;0.20;0.20;;;-0.20;99.90;;;;;;5107113;28;20040;-81
2021/12/23 10:07:50;;;;;;;0.20;0.20;;;-0.20;99.90;;;;;;5090718;28;20060;-80
2021/12/23 10:10:37;;;;;;;0.20;0.20;;;-0.20;99.90;;;;;;5090476;28;20045;-79
2021/12/23 10:30:18;;;;;;;0.65;0.65;;;-0.20;99.90;;;;;;5107947;28;20052;-82
2021/12/23 10:33:12;;;;;;;0.20;0.20;;;-0.20;99.90;;;;;;5090877;28;20087;-82
2021/12/23 10:38:32;;;;;;;0.30;0.30;;;-0.10;99.90;;;;;;5107780;28;20052;-79
2021/12/23 10:41:05;;;;;;;0.20;0.20;;;0.00;99.90;;;;;;5106811;28;20084;-83
2021/12/23 10:43:43;;;;;;;0.30;0.30;;;-0.20;99.90;;;;;;5106622;28;20044;-81
2021/12/23 10:46:22;;;;;;;0.75;0.55;;;-0.10;99.90;;;;;;5086482;28;20083;-82
2021/12/23 10:52:07;;;;;;;0.13;0.13;;;-0.10;99.90;;;;;;5107525;28;20037;-81
2021/12/23 11:00:20;;;;;;;0.20;0.20;;;-0.10;99.90;;;;;;5091547;28;20036;-80
2021/12/23 11:03:25;;;;;;;0.20;0.20;;;0.40;99.90;;;;;;5087522;28;20045;-81
2021/12/23 11:43:57;;;;;;;0.20;0.20;;;-0.10;99.90;;;;;;5086201;28;20133;-80
2021/12/23 11:46:44;;;;;;;0.30;0.30;;;-0.10;99.90;;;;;;5070086;28;20450;-81
2021/12/23 11:49:13;;;;;;;0.20;0.20;;;-0.10;99.90;;;;;;5085987;28;20041;-82
2021/12/23 11:51:53;;;;;;;0.20;0.20;;;0.50;99.90;;;;;;5086034;28;20138;-81
2021/12/23 11:54:30;;;;;;;0.30;0.30;;;0.60;99.90;;;;;;5085719;28;20191;-82
2021/12/23 11:57:12;;;;;;;0.30;0.30;;;-0.10;99.90;;;;;;5086124;28;20044;-83
2021/12/23 11:59:41;;;;;;;0.22;0.22;;;0.30;99.90;;;;;;5085492;28;20041;-82
2021/12/23 12:02:21;;;;;;;0.20;0.20;;;0.30;99.90;;;;;;5071025;28;20094;-81
2021/12/23 12:04:57;;;;;;;0.20;0.20;;;-0.10;99.90;;;;;;5073492;28;20500;-81
2021/12/23 12:07:25;;;;;;;0.20;0.20;;;-0.10;99.90;;;;;;5072836;28;20061;-82
2021/12/23 12:09:56;;;;;;;0.30;0.30;;;-0.10;99.90;;;;;;5073058;28;20048;-84
2021/12/23 12:12:23;;;;;;;0.30;0.30;;;-0.10;99.90;;;;;;5089321;28;20044;-83
2021/12/23 12:14:51;;;;;;;0.30;0.30;;;0.00;99.90;;;;;;5073358;28;20044;-83
2021/12/23 12:20:09;;;;;;;0.30;0.30;;;-0.10;99.90;;;;;;5097437;28;20820;-83
2021/12/23 12:22:45;;;;;;;0.30;0.30;;;0.90;99.90;;;;;;5091377;28;20396;-83
2021/12/23 12:25:53;;;;;;;0.17;0.17;;;0.00;99.90;;;;;;5091596;28;20043;-84
2021/12/23 12:28:48;;;;;;;0.30;0.30;;;0.00;99.90;;;;;;5087836;28;20040;-83
2021/12/23 12:31:26;;;;;;;0.30;0.30;;;0.00;99.90;;;;;;5079596;28;20045;-83
2021/12/23 12:34:11;;;;;;;0.30;0.30;;;0.10;99.90;;;;;;5069544;28;20536;-84
2021/12/23 12:36:50;;;;;;;0.20;0.20;;;0.00;99.90;;;;;;5103591;28;20079;-83
2021/12/23 12:39:24;;;;;;;0.30;0.30;;;0.00;99.90;;;;;;5092249;28;20047;-84
2021/12/23 12:42:00;;;;;;;0.25;0.25;;;0.00;99.90;;;;;;5092182;28;20094;-84
2021/12/23 12:44:40;;;;;;;0.50;0.50;;;0.00;99.90;;;;;;5075616;28;20127;-81
2021/12/23 12:47:17;;;;;;;0.40;0.40;;;0.10;99.90;;;;;;5088445;28;20517;-83
2021/12/23 12:49:49;;;;;;;0.20;0.20;;;0.10;99.90;;;;;;5088473;28;20512;-83
2021/12/23 12:52:34;;;;;;;0.20;0.20;;;0.10;99.90;;;;;;5088359;28;20486;-83
2021/12/23 12:55:07;;;;;;;0.20;0.20;;;0.10;99.90;;;;;;5088978;28;20087;-84
2021/12/23 12:57:39;;;;;;;0.20;0.20;;;0.10;99.90;;;;;;5090301;28;20037;-84
2021/12/23 13:00:31;;;;;;;0.52;0.50;;;0.10;99.90;;;;;;5075178;28;20041;-84
2021/12/23 13:03:12;;;;;;;0.40;0.40;;;0.10;99.90;;;;;;5101745;28;20045;-83
2021/12/23 13:05:42;;;;;;;0.30;0.30;;;0.10;99.90;;;;;;5072916;28;20037;-82
2021/12/23 13:08:28;;;;;;;0.28;0.28;;;0.50;99.90;;;;;;5088127;28;20049;-83
2021/12/23 13:11:08;;;;;;;0.20;0.20;;;0.10;99.90;;;;;;5088195;28;20060;-84
2021/12/23 13:13:43;;;;;;;0.20;0.20;;;0.10;99.90;;;;;;5086855;28;20036;-84
2021/12/23 13:16:17;;;;;;;0.30;0.30;;;0.70;99.90;;;;;;5088394;28;20562;-83
2021/12/23 13:18:44;;;;;;;0.20;0.20;;;0.10;99.90;;;;;;5071439;28;20072;-83
2021/12/23 13:21:17;;;;;;;0.30;0.30;;;0.10;99.90;;;;;;5088012;28;20775;-84
2021/12/23 13:23:45;;;;;;;0.30;0.30;;;0.10;99.90;;;;;;5071830;28;20047;-84
2021/12/23 13:26:14;;;;;;;0.30;0.30;;;0.20;99.90;;;;;;5071973;28;20485;-84
2021/12/23 13:28:50;;;;;;;0.20;0.20;;;0.20;99.90;;;;;;5087638;28;20080;-85
2021/12/23 13:31:30;;;;;;;0.20;0.20;;;0.20;99.90;;;;;;5087673;28;20033;-84
2021/12/23 13:34:19;;;;;;;0.20;0.20;;;0.10;99.90;;;;;;5097184;28;20123;-84
2021/12/23 13:36:50;;;;;;;0.22;0.22;;;0.20;99.90;;;;;;5083913;28;20037;-84
2021/12/23 13:39:19;;;;;;;0.25;0.25;;;0.20;99.90;;;;;;5096031;28;20033;-85
2021/12/23 13:41:49;;;;;;;0.30;0.30;;;0.70;99.90;;;;;;5083872;28;20497;-85
2021/12/23 13:44:15;;;;;;;0.20;0.20;;;1.20;99.90;;;;;;5063241;28;20045;-83
2021/12/23 13:46:45;;;;;;;0.20;0.20;;;0.30;99.90;;;;;;5108178;28;20047;-85
2021/12/23 13:49:12;;;;;;;0.20;0.20;;;0.60;99.90;;;;;;5082897;28;20029;-85
2021/12/23 13:51:41;;;;;;;0.20;0.20;;;0.20;99.90;;;;;;5074254;28;20041;-85
2021/12/23 13:54:16;;;;;;;0.30;0.30;;;1.10;99.90;;;;;;5074673;28;20094;-85
2021/12/23 13:56:49;;;;;;;0.20;0.20;;;0.20;99.90;;;;;;5067390;28;20045;-86
2021/12/23 13:59:22;;;;;;;0.25;0.25;;;0.20;99.90;;;;;;5089972;28;20041;-85
2021/12/23 14:02:13;;;;;;;0.20;0.20;;;0.20;99.90;;;;;;5088592;28;20045;-86
2021/12/23 14:04:59;;;;;;;0.20;0.20;;;1.10;99.90;;;;;;5102621;28;20049;-86
2021/12/23 14:07:39;;;;;;;0.20;0.20;;;0.20;99.90;;;;;;5100983;28;20045;-84
2021/12/23 14:10:24;;;;;;;0.30;0.30;;;0.20;99.90;;;;;;5103700;28;20048;-84
2021/12/23 14:13:07;;;;;;;0.20;0.20;;;0.20;99.90;;;;;;5093401;28;20037;-86
2021/12/23 14:15:35;;;;;;;0.30;0.30;;;0.20;99.90;;;;;;5099381;28;20037;-84
2021/12/23 14:18:17;;;;;;;0.30;0.30;;;0.60;99.90;;;;;;5090755;28;20468;-84
2021/12/23 14:23:31;;;;;;;0.20;0.20;;;0.20;99.90;;;;;;5098339;28;20113;-85
2021/12/23 14:26:02;;;;;;;0.30;0.30;;;1.10;99.90;;;;;;5076675;28;20036;-84